createdAt,value
2018-04-25T00:02:04.543Z,12.97
2018-04-25T00:04:32.107Z,12.97
2018-04-25T00:06:59.751Z,12.99
2018-04-25T00:09:27.372Z,13.00
2018-04-25T00:11:55.132Z,13.01
2018-04-25T00:14:22.792Z,13.01
2018-04-25T00:16:50.456Z,12.96
2018-04-25T00:19:18.111Z,12.91
2018-04-25T00:21:45.759Z,12.87
2018-04-25T00:24:13.444Z,12.83
2018-04-25T00:26:41.094Z,12.78
2018-04-25T00:29:08.715Z,12.74
2018-04-25T00:31:36.364Z,12.72
2018-04-25T00:34:03.982Z,12.69
2018-04-25T00:36:31.649Z,12.65
2018-04-25T00:38:59.266Z,12.63
2018-04-25T00:41:26.980Z,12.61
2018-04-25T00:43:54.642Z,12.59
2018-04-25T00:46:22.260Z,12.57
2018-04-25T00:48:49.968Z,12.56
2018-04-25T00:51:17.619Z,12.56
2018-04-25T00:53:45.292Z,12.53
2018-04-25T00:56:12.912Z,12.50
2018-04-25T00:58:40.562Z,12.47
2018-04-25T01:01:08.275Z,12.45
2018-04-25T01:03:35.920Z,12.42
2018-04-25T01:06:03.539Z,12.42
2018-04-25T01:08:31.260Z,12.39
2018-04-25T01:10:58.876Z,12.37
2018-04-25T01:13:26.514Z,12.36
2018-04-25T01:15:54.143Z,12.36
2018-04-25T01:18:21.802Z,12.35
2018-04-25T01:20:49.471Z,12.33
2018-04-25T01:23:22.871Z,12.31
2018-04-25T01:25:50.482Z,12.30
2018-04-25T01:28:21.381Z,12.28
2018-04-25T01:30:58.498Z,12.29
2018-04-25T01:33:42.702Z,12.28
2018-04-25T01:39:36.111Z,12.22
2018-04-25T01:42:15.527Z,12.22
2018-04-25T01:44:43.191Z,12.23
2018-04-25T01:50:27.467Z,12.21
2018-04-25T01:53:07.074Z,12.19
2018-04-25T01:55:46.367Z,12.18
2018-04-25T01:58:25.782Z,12.17
2018-04-25T02:01:05.222Z,12.16
2018-04-25T02:06:35.105Z,12.15
2018-04-25T02:09:02.718Z,12.15
2018-04-25T02:11:30.358Z,12.16
2018-04-25T02:13:57.970Z,12.17
2018-04-25T02:16:25.607Z,12.19
2018-04-25T02:18:53.223Z,12.22
2018-04-25T02:21:20.860Z,12.26
2018-04-25T02:23:48.473Z,12.30
2018-04-25T02:26:16.147Z,12.34
2018-04-25T02:28:43.814Z,12.36
2018-04-25T02:31:11.432Z,12.38
2018-04-25T02:33:39.070Z,12.39
2018-04-25T02:36:06.685Z,12.40
2018-04-25T02:38:34.328Z,12.42
2018-04-25T02:41:01.951Z,12.43
2018-04-25T02:43:29.687Z,12.45
2018-04-25T02:45:57.311Z,12.45
2018-04-25T02:48:24.956Z,12.47
2018-04-25T02:50:52.574Z,12.48
2018-04-25T02:53:20.211Z,12.49
2018-04-25T02:55:47.822Z,12.49
2018-04-25T02:58:15.458Z,12.49
2018-04-25T03:00:43.071Z,12.49
2018-04-25T03:03:10.729Z,12.50
2018-04-25T03:05:38.346Z,12.52
2018-04-25T03:08:05.960Z,12.52
2018-04-25T03:10:33.598Z,12.52
2018-04-25T03:13:01.215Z,12.52
2018-04-25T03:15:28.890Z,12.52
2018-04-25T03:17:56.502Z,12.51
2018-04-25T03:20:24.147Z,12.51
2018-04-25T03:22:51.875Z,12.50
2018-04-25T03:25:19.506Z,12.49
2018-04-25T03:27:47.126Z,12.48
2018-04-25T03:30:14.759Z,12.47
2018-04-25T03:32:42.370Z,12.47
2018-04-25T03:35:10.007Z,12.46
2018-04-25T03:37:37.623Z,12.46
2018-04-25T03:40:05.239Z,12.46
2018-04-25T03:42:32.880Z,12.46
2018-04-25T03:45:00.531Z,12.46
2018-04-25T03:47:28.193Z,12.44
2018-04-25T03:49:55.810Z,12.43
2018-04-25T03:52:23.450Z,12.43
2018-04-25T03:54:51.078Z,12.43
2018-04-25T03:57:18.715Z,12.45
2018-04-25T03:59:46.395Z,12.46
2018-04-25T04:02:14.046Z,12.47
2018-04-25T04:04:41.658Z,12.47
2018-04-25T04:07:09.276Z,12.47
2018-04-25T04:09:36.919Z,12.48
2018-04-25T04:12:04.534Z,12.50
2018-04-25T04:14:32.175Z,12.51
2018-04-25T04:16:59.831Z,12.52
2018-04-25T04:19:27.462Z,12.53
2018-04-25T04:21:55.071Z,12.55
2018-04-25T04:24:22.713Z,12.55
2018-04-25T04:26:50.327Z,12.56
2018-04-25T04:29:18.046Z,12.58
2018-04-25T04:31:45.675Z,12.60
2018-04-25T04:34:13.310Z,12.61
2018-04-25T04:36:40.923Z,12.62
2018-04-25T04:39:08.542Z,12.63
2018-04-25T04:41:36.175Z,12.65
2018-04-25T04:44:03.794Z,12.65
2018-04-25T04:46:31.473Z,12.66
2018-04-25T04:48:59.086Z,12.67
2018-04-25T04:51:26.726Z,12.67
2018-04-25T04:53:54.338Z,12.69
2018-04-25T04:56:22.027Z,12.68
2018-04-25T04:58:49.686Z,12.69
2018-04-25T05:01:17.335Z,12.68
2018-04-25T05:03:45.014Z,12.70
2018-04-25T05:06:12.674Z,12.73
2018-04-25T05:08:40.322Z,12.74
2018-04-25T05:11:08.003Z,12.78
2018-04-25T05:13:35.666Z,12.80
2018-04-25T05:16:03.283Z,12.82
2018-04-25T05:18:30.984Z,12.84
2018-04-25T05:20:58.598Z,12.86
2018-04-25T05:23:26.242Z,12.90
2018-04-25T05:25:53.859Z,12.92
2018-04-25T05:28:21.536Z,12.95
2018-04-25T05:30:49.154Z,12.97
2018-04-25T05:33:16.810Z,12.98
2018-04-25T05:35:44.520Z,12.98
2018-04-25T05:38:12.190Z,13.00
2018-04-25T05:40:39.854Z,13.01
2018-04-25T05:43:07.516Z,13.01
2018-04-25T05:45:35.151Z,13.03
2018-04-25T05:48:02.763Z,13.04
2018-04-25T05:50:30.398Z,13.05
2018-04-25T05:52:58.068Z,13.05
2018-04-25T05:55:25.722Z,13.05
2018-04-25T05:57:53.379Z,13.06
2018-04-25T06:00:20.995Z,13.05
2018-04-25T06:02:48.610Z,13.06
2018-04-25T06:05:16.271Z,13.01
2018-04-25T06:07:43.929Z,13.06
2018-04-25T06:10:11.558Z,13.05
2018-04-25T06:12:39.176Z,13.04
2018-04-25T06:15:07.018Z,13.04
2018-04-25T06:17:34.787Z,13.04
2018-04-25T06:20:02.451Z,13.06
2018-04-25T06:22:30.119Z,13.06
2018-04-25T06:24:57.734Z,13.07
2018-04-25T06:27:25.438Z,13.08
2018-04-25T06:29:53.200Z,13.11
2018-04-25T06:32:20.838Z,13.15
2018-04-25T06:34:48.462Z,13.16
2018-04-25T06:37:16.189Z,13.18
2018-04-25T06:39:43.808Z,13.23
2018-04-25T06:42:11.422Z,13.26
2018-04-25T06:44:39.146Z,13.29
2018-04-25T06:47:06.699Z,13.31
2018-04-25T06:49:34.338Z,13.36
2018-04-25T06:52:01.960Z,13.39
2018-04-25T06:54:29.594Z,13.40
2018-04-25T06:56:57.286Z,13.43
2018-04-25T06:59:24.925Z,13.50
2018-04-25T07:01:52.610Z,13.55
2018-04-25T07:04:20.246Z,13.61
2018-04-25T07:06:47.943Z,13.65
2018-04-25T07:09:15.573Z,13.69
2018-04-25T07:11:43.190Z,13.75
2018-04-25T07:14:10.901Z,13.90
2018-04-25T07:16:38.481Z,14.13
2018-04-25T07:19:06.091Z,14.29
2018-04-25T07:21:33.727Z,14.37
2018-04-25T07:24:01.338Z,14.56
2018-04-25T07:26:28.974Z,14.77
2018-04-25T07:28:56.591Z,14.91
2018-04-25T07:31:24.230Z,15.11
2018-04-25T07:33:52.025Z,15.31
2018-04-25T07:36:19.670Z,15.55
2018-04-25T07:38:47.346Z,15.73
2018-04-25T07:41:15.011Z,15.95
2018-04-25T07:43:42.770Z,16.12
2018-04-25T07:46:10.437Z,16.25
2018-04-25T07:48:38.070Z,16.45
2018-04-25T07:51:05.695Z,16.60
2018-04-25T07:53:33.352Z,16.76
2018-04-25T07:56:00.987Z,16.89
2018-04-25T07:58:28.662Z,16.97
2018-04-25T08:00:56.310Z,17.02
2018-04-25T08:03:23.974Z,17.10
2018-04-25T08:05:51.644Z,17.20
2018-04-25T08:08:19.303Z,17.26
2018-04-25T08:10:46.962Z,17.30
2018-04-25T08:13:26.456Z,17.30
2018-04-25T08:16:05.848Z,17.28
2018-04-25T08:18:45.264Z,17.24
2018-04-25T08:21:27.785Z,17.27
2018-04-25T08:23:55.524Z,17.28
2018-04-25T08:26:23.170Z,17.29
2018-04-25T08:28:50.790Z,17.27
2018-04-25T08:31:18.431Z,17.36
2018-04-25T08:33:46.047Z,17.42
2018-04-25T08:36:13.791Z,17.48
2018-04-25T08:38:41.402Z,17.59
2018-04-25T08:41:09.093Z,17.75
2018-04-25T08:43:36.855Z,17.84
2018-04-25T08:46:04.498Z,17.94
2018-04-25T08:48:32.181Z,18.07
2018-04-25T08:50:59.795Z,18.17
2018-04-25T08:53:27.438Z,18.20
2018-04-25T08:55:55.173Z,18.24
2018-04-25T08:58:22.810Z,18.32
2018-04-25T09:00:50.486Z,18.35
2018-04-25T09:03:18.155Z,18.35
2018-04-25T09:05:45.838Z,18.43
2018-04-25T09:08:13.479Z,18.49
2018-04-25T09:10:41.094Z,18.53
2018-04-25T09:13:08.734Z,18.62
2018-04-25T09:15:43.261Z,18.65
2018-04-25T09:18:10.899Z,18.74
2018-04-25T09:20:38.518Z,18.81
2018-04-25T09:23:06.174Z,18.88
2018-04-25T09:25:33.881Z,18.94
2018-04-25T09:28:01.539Z,19.03
2018-04-25T09:30:29.182Z,19.05
2018-04-25T09:32:56.799Z,19.12
2018-04-25T09:35:24.526Z,19.23
2018-04-25T09:37:52.189Z,19.31
2018-04-25T09:40:19.954Z,19.41
2018-04-25T09:42:47.574Z,19.49
2018-04-25T09:45:15.887Z,19.59
2018-04-25T09:47:43.499Z,19.61
2018-04-25T09:50:11.134Z,19.66
2018-04-25T09:52:38.783Z,19.76
2018-04-25T09:55:06.437Z,19.85
2018-04-25T09:57:34.066Z,19.88
2018-04-25T10:00:01.722Z,19.92
2018-04-25T10:02:33.370Z,19.97
2018-04-25T10:05:01.022Z,20.07
2018-04-25T10:07:28.641Z,20.18
2018-04-25T10:09:56.317Z,20.18
2018-04-25T10:12:23.977Z,20.21
2018-04-25T10:14:51.637Z,20.16
2018-04-25T10:17:19.316Z,20.09
2018-04-25T10:19:47.933Z,20.02
2018-04-25T10:22:15.558Z,19.85
2018-04-25T10:24:43.202Z,19.59
2018-04-25T10:27:10.867Z,19.29
2018-04-25T10:29:38.478Z,18.98
2018-04-25T10:32:06.287Z,18.64
2018-04-25T10:34:33.834Z,18.24
2018-04-25T10:37:01.471Z,17.85
2018-04-25T10:39:29.126Z,17.55
2018-04-25T10:41:56.840Z,17.36
2018-04-25T10:44:24.466Z,17.20
2018-04-25T10:46:52.070Z,17.11
2018-04-25T10:49:19.707Z,17.05
2018-04-25T10:51:47.386Z,17.02
2018-04-25T10:54:15.019Z,16.96
2018-04-25T10:56:42.812Z,16.90
2018-04-25T10:59:10.450Z,16.87
2018-04-25T11:01:38.054Z,16.89
2018-04-25T11:04:05.806Z,16.92
2018-04-25T11:06:33.426Z,17.00
2018-04-25T11:09:01.131Z,17.09
2018-04-25T11:11:28.798Z,17.21
2018-04-25T11:13:56.411Z,17.34
2018-04-25T11:16:24.122Z,17.47
2018-04-25T11:18:51.980Z,17.62
2018-04-25T11:21:19.646Z,17.76
2018-04-25T11:23:47.258Z,17.92
2018-04-25T11:26:14.887Z,18.10
2018-04-25T11:28:42.630Z,18.38
2018-04-25T11:31:10.263Z,18.58
2018-04-25T11:33:40.930Z,18.68
2018-04-25T11:36:08.565Z,18.76
2018-04-25T11:38:36.250Z,18.81
2018-04-25T11:41:03.879Z,18.83
2018-04-25T11:43:31.482Z,18.82
2018-04-25T11:45:59.106Z,18.82
2018-04-25T11:48:26.799Z,18.84
2018-04-25T11:50:54.456Z,18.86
2018-04-25T11:53:22.059Z,18.97
2018-04-25T11:55:49.682Z,19.12
2018-04-25T11:58:17.307Z,19.24
2018-04-25T12:00:44.911Z,19.36
2018-04-25T12:03:12.545Z,19.47
2018-04-25T12:05:40.146Z,19.56
2018-04-25T12:08:07.788Z,19.65
2018-04-25T12:10:35.395Z,19.78
2018-04-25T12:13:03.123Z,19.89
2018-04-25T12:15:30.786Z,20.05
2018-04-25T12:17:58.439Z,20.20
2018-04-25T12:20:26.043Z,20.30
2018-04-25T12:22:53.671Z,20.33
2018-04-25T12:25:21.301Z,20.29
2018-04-25T12:27:48.994Z,20.28
2018-04-25T12:30:16.623Z,20.31
2018-04-25T12:32:44.222Z,20.34
2018-04-25T12:35:11.850Z,20.37
2018-04-25T12:37:39.451Z,20.29
2018-04-25T12:40:07.106Z,20.14
2018-04-25T12:42:34.726Z,19.96
2018-04-25T12:45:02.429Z,19.79
2018-04-25T12:47:30.035Z,19.62
2018-04-25T12:49:57.835Z,19.48
2018-04-25T12:52:25.522Z,19.31
2018-04-25T12:54:53.150Z,19.17
2018-04-25T12:57:20.838Z,19.05
2018-04-25T12:59:48.466Z,18.90
2018-04-25T13:02:16.079Z,18.73
2018-04-25T13:04:43.710Z,18.59
2018-04-25T13:07:11.391Z,18.43
2018-04-25T13:09:39.051Z,18.28
2018-04-25T13:12:06.714Z,18.19
2018-04-25T13:14:34.374Z,18.09
2018-04-25T13:17:02.038Z,17.99
2018-04-25T13:19:29.667Z,17.89
2018-04-25T13:21:57.362Z,17.82
2018-04-25T13:24:24.998Z,17.82
2018-04-25T13:26:52.601Z,17.75
2018-04-25T13:29:20.349Z,17.66
2018-04-25T13:31:47.962Z,17.55
2018-04-25T13:34:15.588Z,17.39
2018-04-25T13:36:43.198Z,17.24
2018-04-25T13:39:10.836Z,17.09
2018-04-25T13:41:38.459Z,16.92
2018-04-25T13:44:06.085Z,16.70
2018-04-25T13:46:33.686Z,16.54
2018-04-25T13:49:01.312Z,16.37
2018-04-25T13:51:29.007Z,16.23
2018-04-25T13:53:56.612Z,16.09
2018-04-25T13:56:24.246Z,15.96
2018-04-25T13:58:51.856Z,15.83
2018-04-25T14:01:19.482Z,15.71
2018-04-25T14:03:47.081Z,15.61
2018-04-25T14:06:14.859Z,15.51
2018-04-25T14:08:42.403Z,15.41
2018-04-25T14:11:10.030Z,15.30
2018-04-25T14:13:37.634Z,15.14
2018-04-25T14:16:05.271Z,14.90
2018-04-25T14:18:32.982Z,14.65
2018-04-25T14:21:00.615Z,14.41
2018-04-25T14:23:28.218Z,14.18
2018-04-25T14:25:55.879Z,13.99
2018-04-25T14:28:23.538Z,13.85
2018-04-25T14:30:51.198Z,13.72
2018-04-25T14:33:18.803Z,13.60
2018-04-25T14:35:46.435Z,13.47
2018-04-25T14:38:14.081Z,13.33
2018-04-25T14:40:41.741Z,13.20
2018-04-25T14:43:09.413Z,13.01
2018-04-25T14:45:37.044Z,12.87
2018-04-25T14:48:04.735Z,12.70
2018-04-25T14:50:32.395Z,12.61
2018-04-25T14:52:59.993Z,12.50
2018-04-25T14:55:27.619Z,12.40
2018-04-25T14:57:55.222Z,12.28
2018-04-25T15:00:22.858Z,12.16
2018-04-25T15:02:50.506Z,12.05
2018-04-25T15:05:18.171Z,11.95
2018-04-25T15:07:45.782Z,11.87
2018-04-25T15:10:13.432Z,11.80
2018-04-25T15:12:41.034Z,11.78
2018-04-25T15:15:08.647Z,11.83
2018-04-25T15:17:36.274Z,11.91
2018-04-25T15:20:03.921Z,11.97
2018-04-25T15:22:31.597Z,12.02
2018-04-25T15:24:59.199Z,12.04
2018-04-25T15:27:26.831Z,12.02
2018-04-25T15:29:54.430Z,11.98
2018-04-25T15:32:22.086Z,11.94
2018-04-25T15:34:49.691Z,11.89
2018-04-25T15:37:17.365Z,11.83
2018-04-25T15:39:45.039Z,11.78
2018-04-25T15:42:12.690Z,11.74
2018-04-25T15:44:40.318Z,11.71
2018-04-25T15:47:08.027Z,11.72
2018-04-25T15:49:35.676Z,11.75
2018-04-25T15:52:03.279Z,11.78
2018-04-25T15:54:31.003Z,11.82
2018-04-25T15:56:58.671Z,11.90
2018-04-25T15:59:26.330Z,11.98
2018-04-25T16:01:53.938Z,12.07
2018-04-25T16:04:21.570Z,12.21
2018-04-25T16:06:49.174Z,12.39
2018-04-25T16:09:16.802Z,12.52
2018-04-25T16:11:44.406Z,12.66
2018-04-25T16:14:12.039Z,12.76
2018-04-25T16:16:39.646Z,12.78
2018-04-25T16:19:07.267Z,12.81
2018-04-25T16:21:34.866Z,12.95
2018-04-25T16:24:02.550Z,13.01
2018-04-25T16:26:30.210Z,13.03
2018-04-25T16:28:57.838Z,13.07
2018-04-25T16:31:25.535Z,13.15
2018-04-25T16:33:53.149Z,13.20
2018-04-25T16:36:20.864Z,13.42
2018-04-25T16:38:48.522Z,13.70
2018-04-25T16:41:16.157Z,14.00
2018-04-25T16:43:43.763Z,14.32
2018-04-25T16:46:11.511Z,14.47
2018-04-25T16:48:39.175Z,14.74
2018-04-25T16:51:06.806Z,15.00
2018-04-25T16:53:34.410Z,15.28
2018-04-25T16:56:02.044Z,15.56
2018-04-25T16:58:29.650Z,15.80
2018-04-25T17:00:57.381Z,15.87
2018-04-25T17:03:25.044Z,15.98
2018-04-25T17:05:52.682Z,16.08
2018-04-25T17:08:20.372Z,16.07
2018-04-25T17:10:47.998Z,16.15
2018-04-25T17:13:15.695Z,16.18
2018-04-25T17:15:43.358Z,16.21
2018-04-25T17:18:10.970Z,16.18
2018-04-25T17:20:38.598Z,15.95
2018-04-25T17:23:06.274Z,15.62
2018-04-25T17:25:33.854Z,15.22
2018-04-25T17:28:01.455Z,14.83
2018-04-25T17:30:29.138Z,14.43
2018-04-25T17:32:56.797Z,14.08
2018-04-25T17:35:24.459Z,13.77
2018-04-25T17:37:52.070Z,13.51
2018-04-25T17:40:19.694Z,13.29
2018-04-25T17:42:47.333Z,13.09
2018-04-25T17:45:15.002Z,12.92
2018-04-25T17:47:42.605Z,12.79
2018-04-25T17:50:10.239Z,12.68
2018-04-25T17:52:37.886Z,12.59
2018-04-25T17:55:05.515Z,12.53
2018-04-25T17:57:33.163Z,12.47
2018-04-25T18:00:00.882Z,12.43
2018-04-25T18:02:28.540Z,12.38
2018-04-25T18:04:56.198Z,12.33
2018-04-25T18:07:23.806Z,12.28
2018-04-25T18:09:51.411Z,12.24
2018-04-25T18:12:19.087Z,12.20
2018-04-25T18:14:46.748Z,12.16
2018-04-25T18:17:14.374Z,12.11
2018-04-25T18:19:41.975Z,12.08
2018-04-25T18:22:09.631Z,12.04
2018-04-25T18:24:37.294Z,12.00
2018-04-25T18:27:04.918Z,11.98
2018-04-25T18:29:32.518Z,11.96
2018-04-25T18:32:00.123Z,11.93
2018-04-25T18:34:27.751Z,11.89
2018-04-25T18:36:55.353Z,11.87
2018-04-25T18:39:23.271Z,11.83
2018-04-25T18:41:50.905Z,11.81
2018-04-25T18:44:18.811Z,11.79
2018-04-25T18:46:46.471Z,11.78
2018-04-25T18:49:14.126Z,11.74
2018-04-25T18:51:41.734Z,11.72
2018-04-25T18:54:09.358Z,11.68
2018-04-25T18:56:36.967Z,11.64
2018-04-25T18:59:04.591Z,11.61
2018-04-25T19:01:32.239Z,11.59
2018-04-25T19:03:59.866Z,11.55
2018-04-25T19:06:27.465Z,11.54
2018-04-25T19:08:55.094Z,11.50
2018-04-25T19:11:22.710Z,11.48
2018-04-25T19:13:50.346Z,11.46
2018-04-25T19:16:18.727Z,11.44
2018-04-25T19:18:47.303Z,11.40
2018-04-25T19:21:14.971Z,11.38
2018-04-25T19:23:42.626Z,11.36
2018-04-25T19:26:10.290Z,11.34
2018-04-25T19:28:37.899Z,11.33
2018-04-25T19:31:05.530Z,11.30
2018-04-25T19:33:33.154Z,11.29
2018-04-25T19:36:00.767Z,11.28
2018-04-25T19:38:28.503Z,11.27
2018-04-25T19:40:56.162Z,11.26
2018-04-25T19:43:23.794Z,11.25
2018-04-25T19:45:51.487Z,11.24
2018-04-25T19:48:19.158Z,11.23
2018-04-25T19:50:46.757Z,11.22
2018-04-25T19:53:14.479Z,11.20
2018-04-25T19:55:42.098Z,11.18
2018-04-25T19:58:09.726Z,11.13
2018-04-25T20:00:37.362Z,11.08
2018-04-25T20:03:05.026Z,11.02
2018-04-25T20:05:32.712Z,10.96
2018-04-25T20:08:00.436Z,10.89
2018-04-25T20:10:28.405Z,10.83
2018-04-25T20:12:56.119Z,10.76
2018-04-25T20:15:24.052Z,10.70
2018-04-25T20:17:51.805Z,10.64
2018-04-25T20:20:20.299Z,10.58
2018-04-25T20:22:48.017Z,10.52
2018-04-25T20:25:15.715Z,10.46
2018-04-25T20:27:43.594Z,10.42
2018-04-25T20:30:11.981Z,10.36
2018-04-25T20:32:39.681Z,10.32
2018-04-25T20:35:07.387Z,10.26
2018-04-25T20:37:35.082Z,10.22
2018-04-25T20:40:02.751Z,10.17
2018-04-25T20:42:30.492Z,10.15
2018-04-25T20:44:58.155Z,10.12
2018-04-25T20:47:25.874Z,10.08
2018-04-25T20:49:53.607Z,10.04
2018-04-25T20:52:21.218Z,10.00
2018-04-25T20:54:48.910Z,9.96
2018-04-25T20:57:16.510Z,9.93
2018-04-25T20:59:44.135Z,9.90
2018-04-25T21:02:11.730Z,9.88
2018-04-25T21:04:39.458Z,9.86
2018-04-25T21:07:07.121Z,9.84
2018-04-25T21:09:34.777Z,9.83
2018-04-25T21:12:02.448Z,9.84
2018-04-25T21:14:30.086Z,9.84
2018-04-25T21:16:57.770Z,9.83
2018-04-25T21:19:25.375Z,9.82
2018-04-25T21:21:53.102Z,9.79
2018-04-25T21:24:20.706Z,9.76
2018-04-25T21:26:48.322Z,9.74
2018-04-25T21:29:15.918Z,9.72
2018-04-25T21:31:43.695Z,9.72
2018-04-25T21:34:11.275Z,9.70
2018-04-25T21:36:38.914Z,9.70
2018-04-25T21:39:06.519Z,9.69
2018-04-25T21:41:34.191Z,9.70
2018-04-25T21:44:01.819Z,9.70
2018-04-25T21:46:29.425Z,9.70
2018-04-25T21:48:57.071Z,9.69
2018-04-25T21:51:24.667Z,9.68
2018-04-25T21:53:52.293Z,9.67
2018-04-25T21:56:19.895Z,9.65
2018-04-25T21:58:47.520Z,9.62
2018-04-25T22:01:15.142Z,9.60
2018-04-25T22:03:42.742Z,9.57
2018-04-25T22:06:10.371Z,9.54
2018-04-25T22:08:37.970Z,9.51
2018-04-25T22:11:05.593Z,9.48
2018-04-25T22:13:33.194Z,9.46
2018-04-25T22:16:00.815Z,9.45
2018-04-25T22:18:28.467Z,9.47
2018-04-25T22:20:56.087Z,9.48
2018-04-25T22:23:23.690Z,9.49
2018-04-25T22:25:51.403Z,9.50
2018-04-25T22:28:19.071Z,9.52
2018-04-25T22:30:46.694Z,9.55
2018-04-25T22:33:14.390Z,9.56
2018-04-25T22:35:42.017Z,9.58
2018-04-25T22:38:09.622Z,9.59
2018-04-25T22:40:37.248Z,9.61
2018-04-25T22:43:04.846Z,9.63
2018-04-25T22:45:32.501Z,9.63
2018-04-25T22:48:00.162Z,9.65
2018-04-25T22:50:27.790Z,9.68
2018-04-25T22:52:55.386Z,9.69
2018-04-25T22:55:23.010Z,9.71
2018-04-25T22:57:50.706Z,9.73
2018-04-25T23:00:21.108Z,9.76
2018-04-25T23:02:48.718Z,9.77
2018-04-25T23:05:16.360Z,9.78
2018-04-25T23:07:43.997Z,9.79
2018-04-25T23:10:11.604Z,9.79
2018-04-25T23:12:39.222Z,9.78
2018-04-25T23:15:06.819Z,9.77
2018-04-25T23:17:34.450Z,9.78
2018-04-25T23:20:02.050Z,9.79
2018-04-25T23:22:29.787Z,9.80
2018-04-25T23:24:57.489Z,9.81
2018-04-25T23:27:25.106Z,9.82
2018-04-25T23:29:52.714Z,9.85
2018-04-25T23:32:20.357Z,9.87
2018-04-25T23:34:47.959Z,9.90
2018-04-25T23:37:15.558Z,9.93
2018-04-25T23:39:43.173Z,9.94
2018-04-25T23:42:10.775Z,9.95
2018-04-25T23:44:38.399Z,9.98
2018-04-25T23:47:06.007Z,10.01
2018-04-25T23:49:33.762Z,10.03
2018-04-25T23:52:01.367Z,10.04
2018-04-25T23:54:28.999Z,10.05
2018-04-25T23:56:56.610Z,10.05
2018-04-25T23:59:24.324Z,10.05
